createdAt,value
2018-11-07T11:51:48.217Z,35
2018-11-07T12:07:12.156Z,35
2018-11-07T12:08:38.262Z,35
2018-11-07T13:59:32.372Z,35
2018-11-07T14:00:35.796Z,35
2018-11-07T14:01:39.209Z,34
2018-11-07T14:02:42.645Z,35
2018-11-07T14:03:46.073Z,34
2018-11-07T14:05:07.548Z,35
2018-11-07T14:15:11.222Z,35
2018-11-07T14:25:14.690Z,36
2018-11-07T14:35:18.161Z,35
2018-11-07T14:45:21.608Z,35
2018-11-07T14:55:25.075Z,37
2018-11-07T15:05:28.728Z,38
2018-11-07T15:15:32.309Z,38
2018-11-07T15:25:35.814Z,38
2018-11-07T15:35:39.260Z,38
2018-11-07T15:45:42.761Z,39
2018-11-07T15:55:46.202Z,40
2018-11-07T16:05:49.646Z,38
2018-11-07T16:15:53.185Z,39
2018-11-07T16:25:57.173Z,40
2018-11-07T16:36:00.790Z,39
2018-11-07T16:46:04.248Z,38
2018-11-07T16:56:07.702Z,39
2018-11-07T17:06:11.154Z,39
2018-11-07T17:16:14.570Z,39
2018-11-07T17:26:17.999Z,42
2018-11-07T17:36:21.456Z,42
2018-11-07T17:46:24.915Z,40
2018-11-07T17:56:28.643Z,44
2018-11-07T18:06:32.219Z,39
2018-11-07T18:16:35.679Z,38
2018-11-07T18:26:39.149Z,40
2018-11-07T18:36:42.617Z,39
2018-11-07T18:46:46.090Z,42
2018-11-07T18:56:49.522Z,39
2018-11-07T19:06:52.926Z,39
2018-11-07T19:16:56.603Z,40
2018-11-07T19:27:00.647Z,41
2018-11-07T19:37:04.246Z,41
2018-11-07T19:47:08.221Z,43
2018-11-07T19:57:11.856Z,42
2018-11-07T20:07:16.337Z,42
2018-11-07T20:17:19.767Z,42
2018-11-07T20:27:23.204Z,42
2018-11-07T20:37:26.661Z,42
2018-11-07T20:47:30.114Z,43
2018-11-07T20:57:33.551Z,43
2018-11-07T21:07:37.009Z,41
2018-11-07T21:17:40.472Z,40
2018-11-07T21:27:43.912Z,41
2018-11-07T21:37:47.313Z,42
2018-11-07T21:47:50.764Z,41
2018-11-07T21:57:54.228Z,39
2018-11-07T22:07:57.670Z,39
2018-11-07T22:18:01.116Z,39
2018-11-07T22:28:04.572Z,38
2018-11-07T22:38:08.032Z,38
2018-11-07T22:48:11.480Z,38
2018-11-07T22:58:14.937Z,38
2018-11-07T23:08:18.388Z,39
2018-11-07T23:18:21.884Z,38
2018-11-07T23:28:25.318Z,38
2018-11-07T23:38:28.746Z,38
2018-11-07T23:48:32.214Z,37
2018-11-07T23:58:35.663Z,37
